createdAt,value
2018-12-31T00:04:12.590Z,102167.58
2018-12-31T00:06:39.304Z,102167.13
2018-12-31T00:09:04.573Z,102165.66
2018-12-31T00:11:28.992Z,102165.02
2018-12-31T00:13:53.408Z,102168.09
2018-12-31T00:16:17.822Z,102162.02
2018-12-31T00:18:42.223Z,102157.20
2018-12-31T00:21:06.615Z,102159.36
2018-12-31T00:23:31.064Z,102152.81
2018-12-31T00:25:55.459Z,102154.76
2018-12-31T00:28:19.857Z,102161.61
2018-12-31T00:30:44.291Z,102165.14
2018-12-31T00:33:08.699Z,102165.87
2018-12-31T00:35:33.145Z,102164.17
2018-12-31T00:37:57.525Z,102168.63
2018-12-31T00:40:21.942Z,102161.56
2018-12-31T00:42:46.329Z,102159.28
2018-12-31T00:45:10.763Z,102151.84
2018-12-31T00:47:35.159Z,102148.47
2018-12-31T00:49:59.563Z,102153.66
2018-12-31T00:52:23.998Z,102158.49
2018-12-31T00:54:48.382Z,102161.82
2018-12-31T00:57:12.791Z,102164.80
2018-12-31T00:59:37.269Z,102169.54
2018-12-31T01:02:01.697Z,102165.45
2018-12-31T01:04:26.087Z,102178.08
2018-12-31T01:06:50.503Z,102175.70
2018-12-31T01:09:14.891Z,102173.75
2018-12-31T01:11:39.318Z,102179.55
2018-12-31T01:14:03.775Z,102177.20
2018-12-31T01:16:28.166Z,102176.70
2018-12-31T01:18:52.570Z,102189.98
2018-12-31T01:21:16.963Z,102189.76
2018-12-31T01:23:41.365Z,102190.73
2018-12-31T01:26:05.761Z,102192.55
2018-12-31T01:28:30.179Z,102199.67
2018-12-31T01:30:54.570Z,102210.28
2018-12-31T01:33:18.967Z,102202.99
2018-12-31T01:35:43.355Z,102204.23
2018-12-31T01:38:07.760Z,102202.73
2018-12-31T01:40:32.173Z,102196.02
2018-12-31T01:42:56.553Z,102188.58
2018-12-31T01:45:20.957Z,102185.03
2018-12-31T01:47:45.368Z,102182.77
2018-12-31T01:50:09.785Z,102177.52
2018-12-31T01:52:34.344Z,102173.48
2018-12-31T01:54:58.749Z,102177.12
2018-12-31T01:57:23.174Z,102175.95
2018-12-31T01:59:47.599Z,102186.81
2018-12-31T02:02:11.984Z,102192.09
2018-12-31T02:04:36.383Z,102184.62
2018-12-31T02:07:00.786Z,102192.67
2018-12-31T02:09:25.190Z,102206.35
2018-12-31T02:11:49.604Z,102205.63
2018-12-31T02:14:13.984Z,102203.90
2018-12-31T02:16:38.383Z,102200.80
2018-12-31T02:19:02.792Z,102208.52
2018-12-31T02:21:27.208Z,102162.68
2018-12-31T02:23:51.604Z,102207.61
2018-12-31T02:26:16.030Z,102210.11
2018-12-31T02:28:40.445Z,102213.66
2018-12-31T02:31:04.894Z,102215.77
2018-12-31T02:33:29.307Z,102214.16
2018-12-31T02:35:53.699Z,102202.63
2018-12-31T02:38:18.116Z,102203.27
2018-12-31T02:40:42.516Z,102202.50
2018-12-31T02:43:06.936Z,102199.22
2018-12-31T02:45:31.355Z,102198.39
2018-12-31T02:47:55.771Z,102194.86
2018-12-31T02:50:20.201Z,102191.36
2018-12-31T02:52:44.599Z,102189.25
2018-12-31T02:55:09.009Z,102188.94
2018-12-31T02:57:33.393Z,102193.48
2018-12-31T02:59:59.089Z,102196.36
2018-12-31T03:02:23.568Z,102195.61
2018-12-31T03:04:47.974Z,102201.39
2018-12-31T03:07:14.897Z,102196.74
2018-12-31T03:09:39.302Z,102184.08
2018-12-31T03:12:03.723Z,102180.14
2018-12-31T03:14:28.158Z,102181.20
2018-12-31T03:16:52.538Z,102179.66
2018-12-31T03:19:16.922Z,102178.91
2018-12-31T03:21:41.350Z,102179.66
2018-12-31T03:24:05.749Z,102183.38
2018-12-31T03:26:30.165Z,102196.90
2018-12-31T03:28:54.577Z,102186.98
2018-12-31T03:31:18.995Z,102186.90
2018-12-31T03:33:43.390Z,102192.48
2018-12-31T03:36:07.805Z,102187.37
2018-12-31T03:38:32.192Z,102184.47
2018-12-31T03:40:56.623Z,102180.65
2018-12-31T03:43:21.002Z,102180.20
2018-12-31T03:45:45.390Z,102188.31
2018-12-31T03:48:09.808Z,102177.80
2018-12-31T03:50:34.199Z,102178.68
2018-12-31T03:52:58.615Z,102189.57
2018-12-31T03:55:22.987Z,102181.33
2018-12-31T03:57:47.396Z,102181.14
2018-12-31T04:00:11.797Z,102193.50
2018-12-31T04:02:36.219Z,102189.97
2018-12-31T04:05:00.604Z,102195.92
2018-12-31T04:07:24.991Z,102185.43
2018-12-31T04:09:49.388Z,102176.80
2018-12-31T04:12:13.787Z,102179.14
2018-12-31T04:14:38.206Z,102187.39
2018-12-31T04:17:02.602Z,102194.18
2018-12-31T04:19:27.010Z,102194.20
2018-12-31T04:21:51.408Z,102184.22
2018-12-31T04:24:15.817Z,102184.58
2018-12-31T04:26:40.198Z,102195.30
2018-12-31T04:29:04.612Z,102193.92
2018-12-31T04:31:29.018Z,102202.17
2018-12-31T04:33:53.419Z,102208.67
2018-12-31T04:36:17.806Z,102212.89
2018-12-31T04:38:42.190Z,102223.05
2018-12-31T04:41:06.602Z,102212.61
2018-12-31T04:43:31.020Z,102221.13
2018-12-31T04:45:55.426Z,102209.54
2018-12-31T04:48:19.812Z,102213.48
2018-12-31T04:50:44.219Z,102225.42
2018-12-31T04:53:08.611Z,102219.81
2018-12-31T04:55:33.005Z,102221.54
2018-12-31T04:57:57.431Z,102218.63
2018-12-31T05:00:21.832Z,102221.66
2018-12-31T05:02:46.247Z,102219.53
2018-12-31T05:05:10.631Z,102214.48
2018-12-31T05:07:35.044Z,102220.80
2018-12-31T05:09:59.428Z,102220.47
2018-12-31T05:12:23.848Z,102213.66
2018-12-31T05:14:48.224Z,102211.28
2018-12-31T05:17:12.651Z,102215.12
2018-12-31T05:19:37.060Z,102210.31
2018-12-31T05:22:01.447Z,102206.62
2018-12-31T05:24:25.856Z,102212.50
2018-12-31T05:26:50.228Z,102211.22
2018-12-31T05:29:14.649Z,102210.06
2018-12-31T05:31:39.067Z,102207.55
2018-12-31T05:34:03.494Z,102200.27
2018-12-31T05:36:27.879Z,102194.38
2018-12-31T05:38:52.339Z,102196.38
2018-12-31T05:41:17.848Z,102203.39
2018-12-31T05:43:42.302Z,102215.14
2018-12-31T05:46:06.706Z,102221.53
2018-12-31T05:48:31.151Z,102228.98
2018-12-31T05:50:55.500Z,102230.25
2018-12-31T05:53:19.889Z,102239.73
2018-12-31T05:55:44.293Z,102231.71
2018-12-31T05:58:08.700Z,102235.86
2018-12-31T06:00:33.463Z,102233.83
2018-12-31T06:02:57.854Z,102234.99
2018-12-31T06:05:22.279Z,102227.54
2018-12-31T06:07:48.993Z,102224.02
2018-12-31T06:10:13.391Z,102233.53
2018-12-31T06:12:37.806Z,102244.52
2018-12-31T06:15:02.204Z,102252.47
2018-12-31T06:17:26.619Z,102257.54
2018-12-31T06:19:51.016Z,102252.58
2018-12-31T06:22:15.428Z,102249.94
2018-12-31T06:24:39.836Z,102247.27
2018-12-31T06:27:04.259Z,102236.42
2018-12-31T06:29:28.661Z,102235.16
2018-12-31T06:31:53.098Z,102240.00
2018-12-31T06:34:17.522Z,102243.87
2018-12-31T06:36:41.926Z,102247.86
2018-12-31T06:39:07.584Z,102251.84
2018-12-31T06:41:31.985Z,102258.30
2018-12-31T06:43:56.398Z,102255.16
2018-12-31T06:46:20.791Z,102253.80
2018-12-31T06:48:45.207Z,102253.61
2018-12-31T06:51:09.593Z,102254.71
2018-12-31T06:53:34.001Z,102204.17
2018-12-31T06:55:58.387Z,102261.13
2018-12-31T06:58:22.790Z,102266.89
2018-12-31T07:00:47.181Z,102269.08
2018-12-31T07:03:11.565Z,102273.03
2018-12-31T07:05:35.971Z,102270.53
2018-12-31T07:08:00.372Z,102261.67
2018-12-31T07:10:24.800Z,102253.73
2018-12-31T07:12:49.195Z,102252.48
2018-12-31T07:15:13.625Z,102260.37
2018-12-31T07:17:38.019Z,102272.08
2018-12-31T07:20:02.433Z,102275.73
2018-12-31T07:22:26.829Z,102278.95
2018-12-31T07:24:51.225Z,102285.66
2018-12-31T07:27:15.631Z,102286.91
2018-12-31T07:29:40.038Z,102290.84
2018-12-31T07:32:04.455Z,102288.72
2018-12-31T07:34:28.935Z,102291.23
2018-12-31T07:36:53.377Z,102291.41
2018-12-31T07:39:17.754Z,102297.03
2018-12-31T07:41:42.154Z,102297.44
2018-12-31T07:44:06.548Z,102302.45
2018-12-31T07:46:30.957Z,102300.25
2018-12-31T07:48:55.362Z,102298.70
2018-12-31T07:51:19.759Z,102289.41
2018-12-31T07:53:44.162Z,102291.72
2018-12-31T07:56:08.566Z,102300.59
2018-12-31T07:58:32.973Z,102303.50
2018-12-31T08:00:57.382Z,102307.11
2018-12-31T08:03:21.779Z,102308.86
2018-12-31T08:05:46.190Z,102312.50
2018-12-31T08:08:10.602Z,102321.59
2018-12-31T08:10:35.020Z,102325.98
2018-12-31T08:12:59.584Z,102331.77
2018-12-31T08:15:23.992Z,102332.88
2018-12-31T08:17:48.388Z,102341.84
2018-12-31T08:20:12.785Z,102335.36
2018-12-31T08:22:37.203Z,102332.98
2018-12-31T08:25:01.626Z,102337.47
2018-12-31T08:27:26.034Z,102338.13
2018-12-31T08:29:50.452Z,102337.20
2018-12-31T08:32:14.871Z,102339.73
2018-12-31T08:34:39.286Z,102333.91
2018-12-31T08:37:03.700Z,102331.72
2018-12-31T08:39:28.099Z,102326.17
2018-12-31T08:41:52.518Z,102322.22
2018-12-31T08:44:16.927Z,102315.43
2018-12-31T08:46:41.356Z,102318.75
2018-12-31T08:49:05.756Z,102315.09
2018-12-31T08:51:30.155Z,102318.91
2018-12-31T08:53:54.555Z,102315.56
2018-12-31T08:56:18.964Z,102306.74
2018-12-31T08:58:43.364Z,102301.19
2018-12-31T09:01:07.793Z,102304.52
2018-12-31T09:03:32.179Z,102301.16
2018-12-31T09:05:56.577Z,102300.38
2018-12-31T09:08:20.984Z,102301.84
2018-12-31T09:10:45.381Z,102296.78
2018-12-31T09:13:11.951Z,102294.66
2018-12-31T09:15:36.331Z,102293.20
2018-12-31T09:18:00.764Z,102299.38
2018-12-31T09:20:25.202Z,102300.23
2018-12-31T09:22:49.629Z,102304.47
2018-12-31T09:25:14.034Z,102307.94
2018-12-31T09:27:38.465Z,102305.31
2018-12-31T09:30:02.899Z,102303.85
2018-12-31T09:32:27.302Z,102304.72
2018-12-31T09:34:51.735Z,102302.73
2018-12-31T09:37:16.154Z,102296.72
2018-12-31T09:39:40.577Z,102291.25
2018-12-31T09:42:04.964Z,102305.81
2018-12-31T09:44:29.402Z,102299.50
2018-12-31T09:46:53.796Z,102305.04
2018-12-31T09:49:18.242Z,102308.59
2018-12-31T09:51:42.635Z,102304.27
2018-12-31T09:54:07.032Z,102298.57
2018-12-31T09:56:31.454Z,102296.80
2018-12-31T09:58:55.843Z,102292.36
2018-12-31T10:01:20.260Z,102276.42
2018-12-31T10:03:44.662Z,102282.46
2018-12-31T10:06:09.079Z,102281.55
2018-12-31T10:08:33.469Z,102263.81
2018-12-31T10:10:57.889Z,102262.69
2018-12-31T10:13:22.288Z,102267.37
2018-12-31T10:15:46.728Z,102277.95
2018-12-31T10:18:11.131Z,102276.34
2018-12-31T10:20:35.521Z,102272.44
2018-12-31T10:22:59.941Z,102270.59
2018-12-31T10:25:24.324Z,102269.77
2018-12-31T10:27:48.755Z,102267.50
2018-12-31T10:30:13.168Z,102272.11
2018-12-31T10:32:37.591Z,102268.09
2018-12-31T10:35:01.988Z,102264.09
2018-12-31T10:37:26.410Z,102272.66
2018-12-31T10:39:50.803Z,102267.66
2018-12-31T10:42:15.342Z,102269.23
2018-12-31T10:44:39.719Z,102263.20
2018-12-31T10:47:04.135Z,102259.94
2018-12-31T10:49:28.563Z,102257.73
2018-12-31T10:51:52.975Z,102257.03
2018-12-31T10:54:17.382Z,102257.11
2018-12-31T10:56:41.776Z,102258.53
2018-12-31T10:59:06.186Z,102253.38
2018-12-31T11:01:30.628Z,102247.82
2018-12-31T11:03:55.052Z,102234.34
2018-12-31T11:06:19.453Z,102229.27
2018-12-31T11:08:43.866Z,102228.35
2018-12-31T11:11:08.300Z,102235.44
2018-12-31T11:13:32.973Z,102221.16
2018-12-31T11:15:57.398Z,102211.55
2018-12-31T11:18:21.803Z,102217.33
2018-12-31T11:20:46.206Z,102222.00
2018-12-31T11:23:10.596Z,102220.71
2018-12-31T11:25:35.012Z,102213.52
2018-12-31T11:27:59.418Z,102213.18
2018-12-31T11:30:23.829Z,102214.75
2018-12-31T11:32:48.238Z,102215.41
2018-12-31T11:35:12.699Z,102217.28
2018-12-31T11:37:37.115Z,102221.66
2018-12-31T11:40:01.541Z,102215.91
2018-12-31T11:42:25.946Z,102201.66
2018-12-31T11:44:50.331Z,102196.66
2018-12-31T11:47:14.756Z,102202.34
2018-12-31T11:49:39.143Z,102196.45
2018-12-31T11:52:03.556Z,102202.72
2018-12-31T11:54:27.942Z,102214.05
2018-12-31T11:56:52.336Z,102217.16
2018-12-31T11:59:16.724Z,102202.91
2018-12-31T12:01:41.102Z,102200.21
2018-12-31T12:04:05.535Z,102203.78
2018-12-31T12:06:30.586Z,102198.80
2018-12-31T12:08:57.309Z,102194.83
2018-12-31T12:11:21.720Z,102198.64
2018-12-31T12:13:46.114Z,102204.98
2018-12-31T12:16:10.487Z,102210.23
2018-12-31T12:18:34.980Z,102199.50
2018-12-31T12:20:59.379Z,102202.02
2018-12-31T12:23:23.741Z,102204.11
2018-12-31T12:25:48.540Z,102199.67
2018-12-31T12:28:12.911Z,102208.49
2018-12-31T12:30:37.309Z,102205.49
2018-12-31T12:33:01.688Z,102211.05
2018-12-31T12:35:26.088Z,102213.36
2018-12-31T12:37:50.492Z,102201.81
2018-12-31T12:40:14.898Z,102198.76
2018-12-31T12:42:39.298Z,102203.73
2018-12-31T12:45:03.937Z,102198.91
2018-12-31T12:47:28.315Z,102195.92
2018-12-31T12:49:52.684Z,102202.73
2018-12-31T12:52:17.105Z,102192.42
2018-12-31T12:54:41.477Z,102201.88
2018-12-31T12:57:05.884Z,102201.39
2018-12-31T12:59:30.270Z,102197.50
2018-12-31T13:01:55.075Z,102194.55
2018-12-31T13:04:19.438Z,102189.01
2018-12-31T13:06:43.853Z,102200.73
2018-12-31T13:09:08.241Z,102192.54
2018-12-31T13:11:32.623Z,102206.14
2018-12-31T13:13:58.676Z,102201.59
2018-12-31T13:16:23.081Z,102201.06
2018-12-31T13:18:47.765Z,102197.61
2018-12-31T13:21:12.178Z,102209.61
2018-12-31T13:23:36.586Z,102207.77
2018-12-31T13:26:00.975Z,102199.45
2018-12-31T13:28:25.463Z,102204.30
2018-12-31T13:30:49.867Z,102205.41
2018-12-31T13:33:14.300Z,102211.78
2018-12-31T13:35:38.683Z,102210.53
2018-12-31T13:38:03.342Z,102211.09
2018-12-31T13:40:27.738Z,102205.84
2018-12-31T13:42:52.126Z,102205.66
2018-12-31T13:45:16.550Z,102203.02
2018-12-31T13:47:40.939Z,102204.98
2018-12-31T13:50:06.007Z,102202.00
2018-12-31T13:52:30.412Z,102203.02
2018-12-31T13:54:55.199Z,102198.68
2018-12-31T13:57:19.580Z,102198.48
2018-12-31T13:59:44.881Z,102195.45
2018-12-31T14:02:09.271Z,102195.06
2018-12-31T14:04:33.657Z,102200.47
2018-12-31T14:06:58.051Z,102197.29
2018-12-31T14:09:22.443Z,102193.59
2018-12-31T14:11:46.861Z,102204.53
2018-12-31T14:14:11.273Z,102204.42
2018-12-31T14:16:35.688Z,102202.20
2018-12-31T14:19:00.084Z,102196.50
2018-12-31T14:21:24.509Z,102196.34
2018-12-31T14:23:48.920Z,102198.11
2018-12-31T14:26:13.340Z,102188.30
2018-12-31T14:28:37.793Z,102199.66
2018-12-31T14:31:02.370Z,102199.27
2018-12-31T14:33:26.819Z,102195.63
2018-12-31T14:35:51.241Z,102198.73
2018-12-31T14:38:15.646Z,102192.78
2018-12-31T14:40:40.055Z,102189.17
2018-12-31T14:43:04.493Z,102190.02
2018-12-31T14:45:28.884Z,102185.80
2018-12-31T14:47:53.323Z,102184.62
2018-12-31T14:50:17.745Z,102190.23
2018-12-31T14:52:42.167Z,102191.34
2018-12-31T14:55:06.668Z,102190.78
2018-12-31T14:57:31.076Z,102182.02
2018-12-31T14:59:55.503Z,102184.61
2018-12-31T15:02:19.915Z,102178.63
2018-12-31T15:04:44.324Z,102172.80
2018-12-31T15:07:09.012Z,102173.80
2018-12-31T15:09:35.769Z,102176.69
2018-12-31T15:12:00.174Z,102181.96
2018-12-31T15:14:24.602Z,102181.03
2018-12-31T15:16:48.995Z,102177.50
2018-12-31T15:19:13.434Z,102173.16
2018-12-31T15:21:37.867Z,102177.64
2018-12-31T15:24:02.553Z,102178.78
2018-12-31T15:26:26.970Z,102171.64
2018-12-31T15:28:51.392Z,102173.88
2018-12-31T15:31:15.812Z,102169.82
2018-12-31T15:33:40.224Z,102168.70
2018-12-31T15:36:04.628Z,102170.76
2018-12-31T15:38:29.063Z,102169.89
2018-12-31T15:40:53.447Z,102165.39
2018-12-31T15:43:18.130Z,102178.88
2018-12-31T15:45:42.521Z,102168.38
2018-12-31T15:48:06.990Z,102183.88
2018-12-31T15:50:31.394Z,102181.78
2018-12-31T15:52:55.829Z,102175.34
2018-12-31T15:55:20.363Z,102178.13
2018-12-31T15:57:44.779Z,102179.59
2018-12-31T16:00:10.029Z,102177.81
2018-12-31T16:02:34.467Z,102172.39
2018-12-31T16:04:58.859Z,102174.33
2018-12-31T16:07:23.250Z,102176.66
2018-12-31T16:09:47.671Z,102172.04
2018-12-31T16:12:12.059Z,102174.14
2018-12-31T16:14:36.490Z,102171.98
2018-12-31T16:17:00.890Z,102166.85
2018-12-31T16:19:25.589Z,102164.01
2018-12-31T16:21:50.018Z,102170.03
2018-12-31T16:24:14.434Z,102165.14
2018-12-31T16:26:38.826Z,102165.70
2018-12-31T16:29:03.230Z,102170.27
2018-12-31T16:31:27.695Z,102167.12
2018-12-31T16:33:52.089Z,102170.70
2018-12-31T16:36:16.511Z,102157.24
2018-12-31T16:38:41.096Z,102168.60
2018-12-31T16:41:05.507Z,102158.39
2018-12-31T16:43:29.964Z,102168.47
2018-12-31T16:45:54.361Z,102165.83
2018-12-31T16:48:18.755Z,102163.23
2018-12-31T16:50:43.185Z,102166.81
2018-12-31T16:53:07.575Z,102162.13
2018-12-31T16:55:31.961Z,102160.43
2018-12-31T16:57:56.358Z,102155.37
2018-12-31T17:00:20.770Z,102159.48
2018-12-31T17:02:45.198Z,102158.64
2018-12-31T17:05:09.603Z,102149.94
2018-12-31T17:07:34.010Z,102156.31
2018-12-31T17:09:58.417Z,102152.34
2018-12-31T17:12:22.851Z,102151.63
2018-12-31T17:14:47.260Z,102138.32
2018-12-31T17:17:11.668Z,102143.38
2018-12-31T17:19:36.090Z,102141.94
2018-12-31T17:22:00.480Z,102139.34
2018-12-31T17:24:24.916Z,102132.91
2018-12-31T17:26:49.340Z,102144.89
2018-12-31T17:29:13.764Z,102142.96
2018-12-31T17:31:38.148Z,102141.63
2018-12-31T17:34:02.962Z,102147.16
2018-12-31T17:36:27.356Z,102146.41
2018-12-31T17:38:51.763Z,102144.53
2018-12-31T17:41:16.161Z,102139.53
2018-12-31T17:43:40.556Z,102147.78
2018-12-31T17:46:04.985Z,102142.39
2018-12-31T17:48:29.390Z,102137.02
2018-12-31T17:50:53.796Z,102141.05
2018-12-31T17:53:18.369Z,102139.48
2018-12-31T17:55:42.791Z,102128.63
2018-12-31T17:58:07.181Z,102135.82
2018-12-31T18:00:31.590Z,102129.61
2018-12-31T18:02:55.988Z,102131.34
2018-12-31T18:05:20.424Z,102130.94
2018-12-31T18:07:44.833Z,102132.64
2018-12-31T18:10:11.591Z,102130.82
2018-12-31T18:12:36.206Z,102123.09
2018-12-31T18:15:00.635Z,102123.62
2018-12-31T18:17:25.083Z,102128.18
2018-12-31T18:19:49.495Z,102127.81
2018-12-31T18:22:13.931Z,102128.09
2018-12-31T18:24:38.339Z,102137.02
2018-12-31T18:27:02.745Z,102135.05
2018-12-31T18:29:27.423Z,102138.27
2018-12-31T18:31:52.114Z,102134.33
2018-12-31T18:34:16.640Z,102087.40
2018-12-31T18:36:41.023Z,102128.93
2018-12-31T18:39:06.907Z,102129.95
2018-12-31T18:41:31.313Z,102125.50
2018-12-31T18:43:55.732Z,102120.80
2018-12-31T18:46:20.139Z,102124.91
2018-12-31T18:48:44.854Z,102122.37
2018-12-31T18:51:09.253Z,102123.97
2018-12-31T18:53:33.658Z,102121.64
2018-12-31T18:55:58.049Z,102124.98
2018-12-31T18:58:22.430Z,102124.73
2018-12-31T19:00:46.851Z,102127.98
2018-12-31T19:03:11.259Z,102123.89
2018-12-31T19:05:35.676Z,102120.06
2018-12-31T19:08:00.076Z,102118.42
2018-12-31T19:10:24.467Z,102114.56
2018-12-31T19:12:48.865Z,102124.52
2018-12-31T19:15:13.293Z,102134.33
2018-12-31T19:17:37.677Z,102130.75
2018-12-31T19:20:02.088Z,102133.45
2018-12-31T19:22:26.493Z,102128.56
2018-12-31T19:24:50.873Z,102130.02
2018-12-31T19:27:15.274Z,102137.33
2018-12-31T19:29:39.672Z,102132.20
2018-12-31T19:32:04.113Z,102126.78
2018-12-31T19:34:28.489Z,102121.67
2018-12-31T19:36:52.911Z,102122.41
2018-12-31T19:39:17.297Z,102114.89
2018-12-31T19:41:41.734Z,102122.73
2018-12-31T19:44:06.149Z,102114.59
2018-12-31T19:46:30.537Z,102111.02
2018-12-31T19:48:54.946Z,102119.88
2018-12-31T19:51:19.338Z,102111.83
2018-12-31T19:53:43.742Z,102117.44
2018-12-31T19:56:08.142Z,102117.19
2018-12-31T19:58:32.562Z,102106.28
2018-12-31T20:00:56.955Z,102104.61
2018-12-31T20:03:21.541Z,102103.30
2018-12-31T20:05:45.942Z,102102.67
2018-12-31T20:08:10.484Z,102103.81
2018-12-31T20:10:34.866Z,102103.70
2018-12-31T20:12:59.273Z,102096.98
2018-12-31T20:15:23.709Z,102105.16
2018-12-31T20:17:49.449Z,102095.16
2018-12-31T20:20:13.929Z,102097.39
2018-12-31T20:22:38.601Z,102093.56
2018-12-31T20:25:03.010Z,102087.62
2018-12-31T20:27:27.409Z,102084.89
2018-12-31T20:29:51.834Z,102086.99
2018-12-31T20:32:16.248Z,102081.80
2018-12-31T20:34:40.675Z,102083.21
2018-12-31T20:37:05.082Z,102076.98
2018-12-31T20:39:29.504Z,102075.67
2018-12-31T20:41:53.932Z,102078.95
2018-12-31T20:44:18.646Z,102075.23
2018-12-31T20:46:43.053Z,102072.01
2018-12-31T20:49:07.441Z,102085.18
2018-12-31T20:51:31.848Z,102076.00
2018-12-31T20:53:56.244Z,102077.16
2018-12-31T20:56:20.663Z,102068.80
2018-12-31T20:58:45.064Z,102074.42
2018-12-31T21:01:09.465Z,102068.55
2018-12-31T21:03:33.887Z,102065.31
2018-12-31T21:05:58.276Z,102066.81
2018-12-31T21:08:22.682Z,102060.61
2018-12-31T21:10:49.433Z,102059.63
2018-12-31T21:13:13.833Z,102056.39
2018-12-31T21:15:38.233Z,102049.25
2018-12-31T21:18:02.651Z,102039.95
2018-12-31T21:20:27.040Z,102040.64
2018-12-31T21:22:51.862Z,102033.61
2018-12-31T21:25:16.285Z,102031.42
2018-12-31T21:27:40.673Z,102027.34
2018-12-31T21:30:08.715Z,102025.70
2018-12-31T21:32:33.091Z,102037.61
2018-12-31T21:34:57.498Z,102039.00
2018-12-31T21:37:21.900Z,102017.21
2018-12-31T21:39:46.311Z,102006.80
2018-12-31T21:42:10.978Z,102013.53
2018-12-31T21:44:35.380Z,102006.28
2018-12-31T21:46:59.777Z,101998.27
2018-12-31T21:49:24.221Z,101994.66
2018-12-31T21:51:48.631Z,101990.36
2018-12-31T21:54:13.028Z,101984.02
2018-12-31T21:56:37.430Z,101994.58
2018-12-31T21:59:01.884Z,101984.49
2018-12-31T22:01:26.575Z,101982.92
2018-12-31T22:03:50.964Z,101981.41
2018-12-31T22:06:15.378Z,101991.17
2018-12-31T22:08:39.783Z,101984.02
2018-12-31T22:11:04.192Z,101975.36
2018-12-31T22:13:28.598Z,101979.40
2018-12-31T22:15:52.982Z,101976.92
2018-12-31T22:18:17.399Z,101973.09
2018-12-31T22:20:42.072Z,101976.16
2018-12-31T22:23:06.498Z,101972.84
2018-12-31T22:25:30.914Z,101977.98
2018-12-31T22:27:55.400Z,101955.44
2018-12-31T22:30:19.804Z,101947.64
2018-12-31T22:32:44.249Z,101961.38
2018-12-31T22:35:08.638Z,101956.20
2018-12-31T22:37:33.072Z,101949.02
2018-12-31T22:39:57.741Z,101942.16
2018-12-31T22:42:22.158Z,101975.44
2018-12-31T22:44:46.583Z,101946.97
2018-12-31T22:47:11.006Z,101937.34
2018-12-31T22:49:35.430Z,101912.71
2018-12-31T22:51:59.855Z,101924.49
2018-12-31T22:54:24.252Z,101912.84
2018-12-31T22:56:48.644Z,101921.18
2018-12-31T22:59:13.136Z,101910.48
2018-12-31T23:01:37.536Z,101915.77
2018-12-31T23:04:01.945Z,101912.28
2018-12-31T23:06:26.361Z,101921.13
2018-12-31T23:08:50.751Z,101911.44
2018-12-31T23:11:15.160Z,101907.47
2018-12-31T23:13:39.556Z,101902.30
2018-12-31T23:16:03.959Z,101898.08
2018-12-31T23:18:28.367Z,101905.84
2018-12-31T23:20:52.803Z,101884.86
2018-12-31T23:23:17.192Z,101875.59
2018-12-31T23:25:41.614Z,101895.09
2018-12-31T23:28:06.024Z,101886.61
2018-12-31T23:30:30.476Z,101885.05
2018-12-31T23:32:54.891Z,101879.88
2018-12-31T23:35:19.282Z,101877.69
2018-12-31T23:37:43.695Z,101863.06
2018-12-31T23:40:09.528Z,101859.64
2018-12-31T23:42:33.955Z,101857.24
2018-12-31T23:44:58.397Z,101860.16
2018-12-31T23:47:22.822Z,101861.72
2018-12-31T23:49:47.242Z,101859.72
2018-12-31T23:52:11.725Z,101856.05
2018-12-31T23:54:36.320Z,101853.48
2018-12-31T23:57:00.719Z,101850.13
2018-12-31T23:59:25.134Z,101846.83
